Time;durP1;ratioP1;P1;durP2;ratioP2;P2;SDS_P1;SDS_P2;PMS_P1;PMS_P2;Temp;Humidity;BMP_temperature;BMP_pressure;BME280_temperature;BME280_humidity;BME280_pressure;Samples;Min_cycle;Max_cycle;Signal;HPM_P1;HPM_P2
2023/04/12 00:00:05;;;;;;;2.85;2.35;;;9.40;99.90;;;;;;5073180;28;20261;-77
2023/04/12 00:02:34;;;;;;;5.55;3.25;;;9.40;99.90;;;;;;5081185;28;20628;-78
2023/04/12 00:05:01;;;;;;;5.30;3.10;;;9.40;99.90;;;;;;5093369;28;20220;-76
2023/04/12 00:07:29;;;;;;;2.85;2.60;;;9.40;99.90;;;;;;5093682;28;20223;-76
2023/04/12 00:09:56;;;;;;;7.10;2.42;;;9.40;99.90;;;;;;5089897;28;20319;-77
2023/04/12 00:12:24;;;;;;;4.78;3.00;;;9.30;99.90;;;;;;5101688;28;20214;-76
2023/04/12 00:14:52;;;;;;;6.85;4.45;;;9.30;99.90;;;;;;5113049;28;20592;-76
2023/04/12 00:17:19;;;;;;;7.75;4.00;;;9.30;99.90;;;;;;5111580;28;20229;-76
2023/04/12 00:19:48;;;;;;;7.63;3.25;;;9.30;99.90;;;;;;5111584;28;20233;-76
2023/04/12 00:22:15;;;;;;;3.28;2.50;;;9.30;99.90;;;;;;5093361;28;20227;-76
2023/04/12 00:24:46;;;;;;;7.70;3.40;;;9.30;99.90;;;;;;5076496;28;20318;-76
2023/04/12 00:27:15;;;;;;;4.28;3.75;;;9.30;99.90;;;;;;5089221;28;20238;-77
2023/04/12 00:29:45;;;;;;;7.78;4.35;;;9.30;99.90;;;;;;5089467;28;20287;-77
2023/04/12 00:32:12;;;;;;;5.70;4.40;;;9.20;99.90;;;;;;5072974;28;20314;-78
2023/04/12 00:34:39;;;;;;;5.43;4.22;;;9.20;99.90;;;;;;5074355;28;20227;-77
2023/04/12 00:37:07;;;;;;;6.38;4.30;;;9.20;99.90;;;;;;5092201;28;20640;-78
2023/04/12 00:39:34;;;;;;;5.35;4.32;;;9.20;99.90;;;;;;5080279;28;20220;-76
2023/04/12 00:42:06;;;;;;;5.03;3.25;;;9.20;99.90;;;;;;5088941;28;20231;-76
2023/04/12 00:44:35;;;;;;;4.38;3.90;;;9.30;99.90;;;;;;5072777;28;20223;-76
2023/04/12 00:47:07;;;;;;;4.00;3.58;;;9.30;99.90;;;;;;5091955;28;20575;-76
2023/04/12 00:49:35;;;;;;;3.20;2.92;;;9.30;99.90;;;;;;5093526;28;20268;-78
2023/04/12 00:52:07;;;;;;;3.72;3.40;;;9.30;99.90;;;;;;5092987;28;20227;-78
2023/04/12 00:54:35;;;;;;;5.57;3.53;;;9.30;99.90;;;;;;5092828;28;20223;-78
2023/04/12 00:57:03;;;;;;;5.10;3.90;;;9.30;99.90;;;;;;5093190;28;20242;-76
2023/04/12 00:59:34;;;;;;;4.20;3.70;;;9.30;99.90;;;;;;5093879;28;20294;-77
2023/04/12 01:02:02;;;;;;;5.93;4.40;;;9.40;99.90;;;;;;5092093;28;20214;-77
2023/04/12 01:04:31;;;;;;;7.00;3.85;;;9.30;99.90;;;;;;5092691;28;20230;-76
2023/04/12 01:07:08;;;;;;;11.57;4.38;;;9.40;99.90;;;;;;5091876;28;20302;-76
2023/04/12 01:09:45;;;;;;;6.72;4.97;;;9.30;99.90;;;;;;5093075;28;20238;-76
2023/04/12 01:12:24;;;;;;;6.50;4.32;;;9.30;99.90;;;;;;5092043;28;20215;-77
2023/04/12 01:14:59;;;;;;;7.18;4.78;;;9.30;99.90;;;;;;5091879;28;20227;-77
2023/04/12 01:17:30;;;;;;;5.18;4.65;;;9.30;99.90;;;;;;5092510;28;20219;-77
2023/04/12 01:20:12;;;;;;;8.90;4.88;;;9.30;99.90;;;;;;5092715;28;20219;-77
2023/04/12 01:23:06;;;;;;;8.07;5.40;;;9.30;99.90;;;;;;5092857;28;20219;-79
2023/04/12 01:25:40;;;;;;;7.93;7.03;;;9.20;99.90;;;;;;5093404;28;20216;-75
2023/04/12 01:28:11;;;;;;;9.13;5.65;;;9.20;99.90;;;;;;5093591;28;20828;-76
2023/04/12 01:30:46;;;;;;;4.88;4.38;;;9.10;99.90;;;;;;5094193;28;20233;-75
2023/04/12 01:33:18;;;;;;;5.97;3.90;;;9.10;99.90;;;;;;5093360;28;20262;-76
2023/04/12 01:35:48;;;;;;;4.22;3.83;;;9.10;99.90;;;;;;5093090;28;20655;-77
2023/04/12 01:38:16;;;;;;;9.18;4.47;;;9.10;99.90;;;;;;5094596;28;20306;-76
2023/04/12 01:40:43;;;;;;;4.22;3.55;;;9.00;99.90;;;;;;5113558;28;20226;-78
2023/04/12 01:43:14;;;;;;;4.05;3.33;;;8.90;99.90;;;;;;5115680;28;20688;-75
2023/04/12 01:45:42;;;;;;;4.10;3.70;;;8.90;99.90;;;;;;5116380;28;21144;-75
2023/04/12 01:48:10;;;;;;;5.05;3.60;;;8.90;99.90;;;;;;5117067;28;20227;-76
2023/04/12 01:50:48;;;;;;;4.75;3.40;;;8.90;99.90;;;;;;5097914;28;20215;-77
2023/04/12 01:53:23;;;;;;;3.50;3.13;;;8.90;99.90;;;;;;5093875;28;20250;-77
2023/04/12 01:55:52;;;;;;;3.70;3.30;;;8.90;99.90;;;;;;5092041;28;20254;-75
2023/04/12 01:58:22;;;;;;;7.38;4.40;;;8.90;99.90;;;;;;5080783;28;20220;-75
2023/04/12 02:00:51;;;;;;;8.00;3.13;;;8.90;99.90;;;;;;5076353;28;20590;-75
2023/04/12 02:03:20;;;;;;;6.63;3.70;;;8.80;99.90;;;;;;5085802;28;20293;-75
2023/04/12 02:05:48;;;;;;;5.78;3.50;;;8.80;99.90;;;;;;5091585;28;20489;-79
2023/04/12 02:08:18;;;;;;;4.30;2.80;;;8.80;99.90;;;;;;5092728;28;20486;-77
2023/04/12 02:10:47;;;;;;;3.70;3.10;;;8.80;99.90;;;;;;5091386;28;20334;-77
2023/04/12 02:13:14;;;;;;;3.97;3.03;;;8.80;99.90;;;;;;5092109;28;20223;-76
2023/04/12 02:15:47;;;;;;;5.43;3.75;;;8.80;99.90;;;;;;5089810;28;20657;-76
2023/04/12 02:18:16;;;;;;;3.97;3.60;;;8.80;99.90;;;;;;5092947;28;20672;-77
2023/04/12 02:20:43;;;;;;;4.63;3.80;;;8.80;99.90;;;;;;5081577;28;20220;-78
2023/04/12 02:23:11;;;;;;;4.78;3.95;;;8.80;99.90;;;;;;5091818;28;20224;-78
2023/04/12 02:25:40;;;;;;;4.15;3.63;;;8.70;99.90;;;;;;5093387;28;20254;-77
2023/04/12 02:28:09;;;;;;;7.88;4.85;;;8.70;99.90;;;;;;5096281;28;20277;-76
2023/04/12 02:30:37;;;;;;;6.38;4.78;;;8.70;99.90;;;;;;5096062;28;20229;-76
2023/04/12 02:33:08;;;;;;;5.22;3.97;;;8.70;99.90;;;;;;5095109;28;20276;-78
2023/04/12 02:35:36;;;;;;;6.70;5.50;;;8.70;99.90;;;;;;5096261;28;20243;-78
2023/04/12 02:38:07;;;;;;;7.47;5.20;;;8.60;99.90;;;;;;5082162;28;20235;-78
2023/04/12 02:40:35;;;;;;;5.22;4.40;;;8.60;99.90;;;;;;5114492;28;20237;-78
2023/04/12 02:43:03;;;;;;;4.75;4.35;;;8.60;99.90;;;;;;5115671;28;20606;-77
2023/04/12 02:45:32;;;;;;;6.22;4.60;;;8.60;99.90;;;;;;5115920;28;20295;-77
2023/04/12 02:47:59;;;;;;;8.95;4.60;;;8.60;99.90;;;;;;5115201;28;20233;-76
2023/04/12 02:50:28;;;;;;;7.13;5.45;;;8.60;99.90;;;;;;5093021;28;20231;-76
2023/04/12 02:52:55;;;;;;;7.72;4.95;;;8.50;99.90;;;;;;5094427;28;20227;-77
2023/04/12 02:55:25;;;;;;;7.53;5.13;;;8.60;99.90;;;;;;5096004;28;20224;-77
2023/04/12 02:57:53;;;;;;;6.97;5.43;;;8.60;99.90;;;;;;5115375;28;20301;-77
2023/04/12 03:00:21;;;;;;;6.93;5.18;;;8.60;99.90;;;;;;5116041;28;20222;-76
2023/04/12 03:02:50;;;;;;;5.20;4.70;;;8.60;99.90;;;;;;5104202;28;20231;-77
2023/04/12 03:05:18;;;;;;;5.47;4.05;;;8.50;99.90;;;;;;5095282;28;20264;-76
2023/04/12 03:07:47;;;;;;;4.28;3.88;;;8.50;99.90;;;;;;5095211;28;20281;-76
2023/04/12 03:10:15;;;;;;;6.82;4.15;;;8.50;99.90;;;;;;5091622;28;20220;-76
2023/04/12 03:12:41;;;;;;;6.70;5.03;;;8.50;99.90;;;;;;5082288;28;20228;-76
2023/04/12 03:15:10;;;;;;;3.90;3.60;;;8.50;99.90;;;;;;5072618;28;20242;-76
2023/04/12 03:17:37;;;;;;;5.18;4.15;;;8.50;99.90;;;;;;5074668;28;20314;-77
2023/04/12 03:20:06;;;;;;;9.98;4.55;;;8.50;99.90;;;;;;5074670;28;20232;-77
2023/04/12 03:22:35;;;;;;;4.03;3.60;;;8.50;99.90;;;;;;5074728;28;20231;-77
2023/04/12 03:25:03;;;;;;;3.80;3.22;;;8.40;99.90;;;;;;5074683;28;20232;-77
2023/04/12 03:27:31;;;;;;;4.80;4.30;;;8.40;99.90;;;;;;5074434;28;20549;-77
2023/04/12 03:29:58;;;;;;;5.05;3.45;;;8.40;99.90;;;;;;5065263;28;20224;-78
2023/04/12 03:32:25;;;;;;;7.63;4.60;;;8.30;99.90;;;;;;5074547;28;20212;-78
2023/04/12 03:34:54;;;;;;;5.30;4.40;;;8.30;99.90;;;;;;5073144;28;20232;-77
2023/04/12 03:37:22;;;;;;;4.32;3.65;;;8.30;99.90;;;;;;5073332;28;20515;-78
2023/04/12 03:39:49;;;;;;;7.40;4.40;;;8.30;99.90;;;;;;5074565;28;20236;-78
2023/04/12 03:42:17;;;;;;;5.63;3.75;;;8.20;99.90;;;;;;5073697;28;20270;-76
2023/04/12 03:44:47;;;;;;;5.72;4.25;;;8.30;99.90;;;;;;5073514;28;20662;-77
2023/04/12 03:47:14;;;;;;;5.82;3.95;;;8.20;99.90;;;;;;5053633;28;20231;-78
2023/04/12 03:49:47;;;;;;;6.20;5.57;;;8.20;99.90;;;;;;5072149;28;20607;-79
2023/04/12 03:52:16;;;;;;;6.97;3.60;;;8.20;99.90;;;;;;5073794;28;20251;-79
2023/04/12 03:54:44;;;;;;;4.40;3.30;;;8.20;99.90;;;;;;5074130;28;20329;-78
2023/04/12 03:57:11;;;;;;;5.97;3.20;;;8.20;99.90;;;;;;5069860;28;20232;-78
2023/04/12 03:59:41;;;;;;;4.18;3.45;;;8.20;99.90;;;;;;5074151;28;20232;-77
2023/04/12 04:02:11;;;;;;;4.00;3.25;;;8.10;99.90;;;;;;5074038;28;20308;-78
2023/04/12 04:04:38;;;;;;;4.47;2.88;;;8.10;99.90;;;;;;5074677;28;20244;-78
2023/04/12 04:07:06;;;;;;;5.35;3.72;;;8.10;99.90;;;;;;5073228;28;20224;-76
2023/04/12 04:09:34;;;;;;;4.88;3.70;;;8.10;99.90;;;;;;5063913;28;20220;-78
2023/04/12 04:12:02;;;;;;;4.47;3.92;;;8.10;99.90;;;;;;5072638;28;20246;-77
2023/04/12 04:14:29;;;;;;;5.05;3.65;;;8.10;99.90;;;;;;5074033;28;20607;-77
2023/04/12 04:16:57;;;;;;;5.55;3.85;;;8.10;99.90;;;;;;5074059;28;20258;-77
2023/04/12 04:19:24;;;;;;;4.32;4.03;;;8.10;99.90;;;;;;5073340;28;20220;-79
2023/04/12 04:21:52;;;;;;;8.23;4.15;;;8.10;99.90;;;;;;5074235;28;20231;-79
2023/04/12 04:24:21;;;;;;;4.97;4.00;;;8.10;99.90;;;;;;5073630;28;20248;-78
2023/04/12 04:26:53;;;;;;;4.15;3.80;;;8.10;99.90;;;;;;5073235;28;20232;-78
2023/04/12 04:29:20;;;;;;;4.90;3.30;;;8.10;99.90;;;;;;5072571;28;20251;-78
2023/04/12 04:31:47;;;;;;;5.43;3.95;;;8.20;99.90;;;;;;5073791;28;20224;-78
2023/04/12 04:34:17;;;;;;;4.43;3.60;;;8.20;99.90;;;;;;5072828;28;20266;-78
2023/04/12 04:36:45;;;;;;;3.50;3.20;;;8.20;99.90;;;;;;5072840;28;20725;-77
2023/04/12 04:39:13;;;;;;;4.00;3.60;;;8.20;99.90;;;;;;5073444;28;20228;-77
2023/04/12 04:41:40;;;;;;;4.35;3.60;;;8.10;99.90;;;;;;5075630;28;20277;-77
2023/04/12 04:44:09;;;;;;;5.70;3.35;;;8.10;99.90;;;;;;5073539;28;20749;-77
2023/04/12 04:46:39;;;;;;;10.25;3.85;;;8.20;99.90;;;;;;5090234;28;20219;-78
2023/04/12 04:49:07;;;;;;;5.05;3.67;;;8.20;99.90;;;;;;5093246;28;20257;-78
2023/04/12 04:51:37;;;;;;;7.13;3.58;;;8.20;99.90;;;;;;5093861;28;20228;-78
2023/04/12 04:54:04;;;;;;;4.75;3.80;;;8.20;99.90;;;;;;5093904;28;20306;-77
2023/04/12 04:56:31;;;;;;;6.38;3.65;;;8.20;99.90;;;;;;5092409;28;20232;-77
2023/04/12 04:59:01;;;;;;;4.35;3.85;;;8.20;99.90;;;;;;5093463;28;20273;-77
2023/04/12 05:01:30;;;;;;;4.97;4.22;;;8.20;99.90;;;;;;5093506;28;20235;-76
2023/04/12 05:03:57;;;;;;;5.72;4.28;;;8.20;99.90;;;;;;5093878;28;20227;-77
2023/04/12 05:06:24;;;;;;;5.88;3.30;;;8.20;99.90;;;;;;5092211;28;20314;-77
2023/04/12 05:08:56;;;;;;;4.28;3.47;;;8.20;99.90;;;;;;5093145;28;20251;-77
2023/04/12 05:11:25;;;;;;;6.72;3.90;;;8.30;99.90;;;;;;5091542;28;20246;-78
2023/04/12 05:13:53;;;;;;;4.50;4.10;;;8.20;99.90;;;;;;5073523;28;20224;-78
2023/04/12 05:16:20;;;;;;;4.93;3.83;;;8.20;99.90;;;;;;5072284;28;20235;-78
2023/04/12 05:18:47;;;;;;;6.88;4.25;;;8.20;99.90;;;;;;5073289;28;20693;-77
2023/04/12 05:21:17;;;;;;;4.07;3.78;;;8.10;99.90;;;;;;5071649;28;20220;-78
2023/04/12 05:23:48;;;;;;;6.70;4.45;;;8.20;99.90;;;;;;5062547;28;20701;-78
2023/04/12 05:26:17;;;;;;;5.70;4.38;;;8.20;99.90;;;;;;5070645;28;20384;-77
2023/04/12 05:28:44;;;;;;;4.25;3.60;;;8.20;99.90;;;;;;5073289;28;20313;-78
2023/04/12 05:31:14;;;;;;;6.63;3.70;;;8.20;99.90;;;;;;5072859;28;20223;-79
2023/04/12 05:33:42;;;;;;;6.28;5.00;;;8.20;99.90;;;;;;5071664;28;20228;-76
2023/04/12 05:36:09;;;;;;;5.60;4.40;;;8.30;99.90;;;;;;5072651;28;20223;-78
2023/04/12 05:38:37;;;;;;;4.97;4.15;;;8.30;99.90;;;;;;5072758;28;20220;-77
2023/04/12 05:41:04;;;;;;;5.57;4.07;;;8.30;99.90;;;;;;5072655;28;20227;-78
2023/04/12 05:43:33;;;;;;;4.35;4.05;;;8.40;99.90;;;;;;5072701;28;20297;-78
2023/04/12 05:46:00;;;;;;;6.60;4.32;;;8.40;99.90;;;;;;5082950;28;20231;-77
2023/04/12 05:48:27;;;;;;;6.15;5.00;;;8.50;99.90;;;;;;5083949;28;20265;-78
2023/04/12 05:50:55;;;;;;;6.53;5.40;;;8.50;99.90;;;;;;5092659;28;20553;-78
2023/04/12 05:53:24;;;;;;;9.02;7.40;;;8.50;99.90;;;;;;5092321;28;20220;-77
2023/04/12 05:55:53;;;;;;;8.77;5.05;;;8.60;99.90;;;;;;5093006;28;20251;-78
2023/04/12 05:58:20;;;;;;;5.78;5.18;;;8.70;99.90;;;;;;5092399;28;20238;-78
2023/04/12 06:00:53;;;;;;;5.57;4.47;;;8.70;99.90;;;;;;5094935;28;20215;-78
2023/04/12 06:03:22;;;;;;;6.57;5.15;;;8.80;99.90;;;;;;5096660;28;20523;-77
2023/04/12 06:05:50;;;;;;;5.80;4.63;;;8.80;99.90;;;;;;5095946;28;20244;-78
2023/04/12 06:08:17;;;;;;;5.95;5.00;;;8.90;99.90;;;;;;5096977;28;20321;-78
2023/04/12 06:10:44;;;;;;;5.85;4.22;;;8.90;99.90;;;;;;5095033;28;20297;-78
2023/04/12 06:13:12;;;;;;;6.22;3.90;;;9.00;99.90;;;;;;5096149;28;20683;-78
2023/04/12 06:15:41;;;;;;;6.28;4.05;;;9.00;99.90;;;;;;5095549;28;20373;-78
2023/04/12 06:18:11;;;;;;;4.85;4.45;;;9.00;99.90;;;;;;5087183;28;20355;-78
2023/04/12 06:20:41;;;;;;;6.25;4.43;;;9.00;99.90;;;;;;5095269;28;20299;-78
2023/04/12 06:23:08;;;;;;;5.72;3.72;;;9.10;99.90;;;;;;5089431;28;20243;-78
2023/04/12 06:25:36;;;;;;;7.15;3.85;;;9.20;99.90;;;;;;5094456;28;20219;-78
2023/04/12 06:28:03;;;;;;;6.28;4.28;;;9.20;99.90;;;;;;5084420;28;20281;-78
2023/04/12 06:30:33;;;;;;;5.22;4.20;;;9.30;99.90;;;;;;5094539;28;20664;-78
2023/04/12 06:33:03;;;;;;;5.07;3.85;;;9.40;99.90;;;;;;5095125;28;20238;-77
2023/04/12 06:35:34;;;;;;;4.70;4.10;;;9.40;99.90;;;;;;5095597;28;20678;-78
2023/04/12 06:38:01;;;;;;;9.90;3.95;;;9.50;99.90;;;;;;5094910;28;20223;-78
2023/04/12 06:40:45;;;;;;;7.93;5.32;;;9.60;99.90;;;;;;5095856;28;20256;-77
2023/04/12 06:43:13;;;;;;;5.82;3.92;;;9.70;99.90;;;;;;5095907;28;20648;-77
2023/04/12 06:45:40;;;;;;;14.20;4.95;;;9.70;99.90;;;;;;5095804;28;20231;-76
2023/04/12 06:48:08;;;;;;;5.60;4.65;;;9.70;99.90;;;;;;5094356;28;20253;-77
2023/04/12 06:50:37;;;;;;;3.88;3.60;;;9.80;99.90;;;;;;5095632;28;20242;-77
2023/04/12 06:53:04;;;;;;;11.77;4.95;;;9.80;99.90;;;;;;5095453;28;20238;-76
2023/04/12 06:55:32;;;;;;;3.95;3.53;;;9.90;99.90;;;;;;5100582;28;20223;-76
2023/04/12 06:58:09;;;;;;;5.32;4.35;;;10.00;99.90;;;;;;5108169;27;20260;-79
2023/04/12 07:00:36;;;;;;;5.10;4.38;;;10.00;99.90;;;;;;5108458;28;20218;-79
2023/04/12 07:03:04;;;;;;;10.15;4.10;;;10.10;99.90;;;;;;5102746;28;20236;-79
2023/04/12 07:05:34;;;;;;;3.92;3.40;;;10.20;99.90;;;;;;5112160;28;20218;-77
2023/04/12 07:08:02;;;;;;;6.60;3.25;;;10.20;99.90;;;;;;5113352;28;20219;-78
2023/04/12 07:10:30;;;;;;;3.67;3.35;;;10.20;99.90;;;;;;5113732;27;20225;-80
2023/04/12 07:13:02;;;;;;;5.50;3.55;;;10.30;99.90;;;;;;5101185;28;20250;-79
2023/04/12 07:15:32;;;;;;;5.03;3.63;;;10.30;99.90;;;;;;5093500;28;20295;-77
2023/04/12 07:17:59;;;;;;;5.82;3.80;;;10.40;99.90;;;;;;5085362;28;20228;-79
2023/04/12 07:20:26;;;;;;;5.13;3.17;;;10.50;99.90;;;;;;5066163;28;20297;-77
2023/04/12 07:22:53;;;;;;;4.07;3.70;;;10.50;99.90;;;;;;5093385;28;20241;-77
2023/04/12 07:25:21;;;;;;;4.93;4.32;;;10.60;99.90;;;;;;5094268;28;20235;-78
2023/04/12 07:27:50;;;;;;;4.30;3.10;;;10.70;99.90;;;;;;5094188;28;20549;-78
2023/04/12 07:30:18;;;;;;;4.13;3.30;;;10.80;99.90;;;;;;5093962;28;20250;-78
2023/04/12 07:32:45;;;;;;;4.05;3.50;;;10.90;99.90;;;;;;5094653;28;20229;-78
2023/04/12 07:35:12;;;;;;;6.07;4.30;;;11.00;99.90;;;;;;5094984;28;20761;-79
2023/04/12 07:37:41;;;;;;;3.70;3.35;;;11.10;99.90;;;;;;5094843;28;20249;-79
2023/04/12 07:40:08;;;;;;;4.95;3.08;;;11.10;99.90;;;;;;5094069;28;20227;-77
2023/04/12 07:42:39;;;;;;;4.53;3.10;;;11.20;99.90;;;;;;5093173;28;20253;-77
2023/04/12 07:45:07;;;;;;;5.47;3.85;;;11.30;99.90;;;;;;5094391;28;20285;-77
2023/04/12 07:47:39;;;;;;;6.63;3.28;;;11.40;99.90;;;;;;5093292;28;20224;-78
2023/04/12 07:50:07;;;;;;;4.95;3.47;;;11.50;99.90;;;;;;5094414;28;20243;-77
2023/04/12 07:52:34;;;;;;;9.15;4.05;;;11.60;99.90;;;;;;5093799;28;20234;-75
2023/04/12 07:55:01;;;;;;;5.90;3.38;;;11.60;99.90;;;;;;5094271;28;20235;-77
2023/04/12 07:57:30;;;;;;;6.78;3.10;;;11.70;99.90;;;;;;5093610;28;20284;-77
2023/04/12 07:59:58;;;;;;;3.83;2.80;;;11.70;99.90;;;;;;5094580;28;20276;-76
2023/04/12 08:02:25;;;;;;;8.15;3.50;;;11.80;99.90;;;;;;5093601;28;20652;-76
2023/04/12 08:04:57;;;;;;;8.15;3.70;;;11.80;99.90;;;;;;5094278;28;20223;-78
2023/04/12 08:07:29;;;;;;;6.45;3.25;;;11.90;99.90;;;;;;5093838;28;20223;-78
2023/04/12 08:09:56;;;;;;;4.53;2.47;;;11.90;99.90;;;;;;5093801;28;20287;-77
2023/04/12 08:12:23;;;;;;;3.65;2.70;;;12.00;99.90;;;;;;5093243;28;20310;-76
2023/04/12 08:14:50;;;;;;;2.70;2.15;;;12.10;99.90;;;;;;5093964;28;20227;-77
2023/04/12 08:17:22;;;;;;;4.35;2.50;;;12.20;99.90;;;;;;5093866;28;20251;-77
2023/04/12 08:19:49;;;;;;;2.65;1.83;;;12.20;99.30;;;;;;5094101;28;20284;-77
2023/04/12 08:22:19;;;;;;;6.30;2.05;;;12.30;99.00;;;;;;5093833;28;20223;-76
2023/04/12 08:25:42;;;;;;;5.05;2.45;;;12.40;98.50;;;;;;5073564;28;20235;-76
2023/04/12 08:49:26;;;;;;;3.35;1.80;;;12.50;95.60;;;;;;5063291;28;20226;-78
2023/04/12 08:51:57;;;;;;;3.45;1.95;;;12.60;95.10;;;;;;5092031;28;20230;-78
2023/04/12 08:54:26;;;;;;;4.35;2.10;;;12.60;95.20;;;;;;5093937;28;20223;-76
2023/04/12 08:56:57;;;;;;;4.85;2.53;;;12.70;94.80;;;;;;5091877;28;20223;-78
2023/04/12 08:59:28;;;;;;;1.60;1.20;;;12.70;93.80;;;;;;5093805;28;20233;-76
2023/04/12 09:01:56;;;;;;;5.80;1.73;;;12.90;94.20;;;;;;5093411;28;20653;-78
2023/04/12 09:04:24;;;;;;;3.20;1.60;;;12.90;93.70;;;;;;5093893;28;20219;-78
2023/04/12 09:06:52;;;;;;;5.70;2.00;;;13.00;92.40;;;;;;5091764;28;20233;-77
2023/04/12 09:09:19;;;;;;;7.40;1.98;;;13.00;92.30;;;;;;5092958;28;20728;-77
2023/04/12 09:12:12;;;;;;;3.42;1.90;;;13.10;92.30;;;;;;5097503;28;20223;-77
2023/04/12 09:14:42;;;;;;;6.10;1.95;;;13.20;91.80;;;;;;5107913;28;20318;-76
2023/04/12 09:17:25;;;;;;;3.35;1.65;;;13.40;91.80;;;;;;5112572;28;20567;-76
2023/04/12 09:19:54;;;;;;;4.40;1.75;;;13.50;90.90;;;;;;5113741;28;20590;-77
2023/04/12 09:22:54;;;;;;;5.07;1.65;;;13.50;90.90;;;;;;5113047;28;20616;-76
2023/04/12 09:25:37;;;;;;;1.95;1.48;;;13.60;90.50;;;;;;5131801;22;20312;-77
2023/04/12 09:44:58;;;;;;;2.83;1.67;;;14.20;84.90;;;;;;4992959;28;20478;-77
2023/04/12 09:47:38;;;;;;;3.23;1.97;;;14.40;84.50;;;;;;5081022;28;20472;-77
2023/04/12 09:50:07;;;;;;;5.70;1.83;;;14.40;80.50;;;;;;5112544;28;20559;-77
2023/04/12 09:52:49;;;;;;;4.23;1.87;;;14.40;78.90;;;;;;5102976;28;20471;-77
2023/04/12 10:03:39;;;;;;;4.30;2.30;;;14.40;76.70;;;;;;4971326;28;20468;-78
2023/04/12 10:06:19;;;;;;;3.03;1.80;;;14.40;75.20;;;;;;5038350;28;20806;-77
2023/04/12 10:09:13;;;;;;;3.20;2.88;;;14.40;75.80;;;;;;5052323;28;20475;-76
2023/04/12 10:11:42;;;;;;;2.50;1.83;;;14.40;74.80;;;;;;5031651;28;20346;-77
2023/04/12 10:14:21;;;;;;;4.03;2.07;;;14.40;75.60;;;;;;5052354;28;20547;-78
2023/04/12 10:16:49;;;;;;;7.45;2.13;;;14.40;74.70;;;;;;5050807;28;20466;-78
2023/04/12 10:19:19;;;;;;;3.05;1.70;;;14.50;74.50;;;;;;5052564;28;20308;-76
2023/04/12 10:21:46;;;;;;;3.40;1.97;;;14.60;74.30;;;;;;5052651;28;20237;-78
2023/04/12 10:24:15;;;;;;;2.80;2.13;;;14.60;74.20;;;;;;5052846;28;20550;-76
2023/04/12 10:26:49;;;;;;;6.00;1.90;;;14.60;73.20;;;;;;5052398;28;20550;-76
2023/04/12 10:29:27;;;;;;;8.73;2.40;;;14.60;72.70;;;;;;5052773;28;20817;-77
2023/04/12 10:31:54;;;;;;;5.97;2.00;;;14.70;73.30;;;;;;5052067;28;20486;-77
2023/04/12 10:34:28;;;;;;;2.17;1.53;;;14.60;70.90;;;;;;5051832;28;20467;-76
2023/04/12 10:36:58;;;;;;;3.77;1.60;;;14.80;71.60;;;;;;5052306;28;21054;-77
2023/04/12 10:39:43;;;;;;;3.47;2.10;;;14.80;72.40;;;;;;5055042;28;20468;-75
2023/04/12 10:42:23;;;;;;;3.03;2.00;;;14.90;72.20;;;;;;5051834;28;20479;-75
2023/04/12 10:44:50;;;;;;;2.50;1.47;;;14.90;72.20;;;;;;5052113;28;20475;-75
2023/04/12 10:48:00;;;;;;;3.00;1.80;;;15.00;70.80;;;;;;5055569;28;20807;-78
2023/04/12 10:50:29;;;;;;;4.93;2.00;;;15.00;70.20;;;;;;5056683;28;20817;-78
2023/04/12 10:53:25;;;;;;;2.73;1.50;;;15.10;71.60;;;;;;5056863;28;20463;-78
2023/04/12 10:55:55;;;;;;;2.80;1.60;;;15.10;70.50;;;;;;5055238;28;20463;-77
2023/04/12 10:58:56;;;;;;;3.00;2.00;;;15.20;71.20;;;;;;5055452;28;20482;-77
2023/04/12 11:01:23;;;;;;;3.23;1.63;;;15.20;69.30;;;;;;5055059;28;20464;-78
2023/04/12 11:04:13;;;;;;;3.47;2.60;;;15.30;70.40;;;;;;5055326;28;20459;-76
2023/04/12 11:06:56;;;;;;;4.47;1.83;;;15.30;69.40;;;;;;5055265;28;20463;-78
2023/04/12 11:09:25;;;;;;;2.53;1.77;;;15.40;70.10;;;;;;5052485;28;21018;-77
2023/04/12 11:11:57;;;;;;;4.20;1.93;;;15.40;68.90;;;;;;5043280;28;20816;-78
2023/04/12 11:14:30;;;;;;;4.07;1.93;;;15.40;69.00;;;;;;5057197;28;20474;-78
2023/04/12 11:17:20;;;;;;;2.13;1.70;;;15.40;68.70;;;;;;5055636;28;20490;-78
2023/04/12 11:19:53;;;;;;;5.00;2.03;;;15.50;68.00;;;;;;5054660;28;20849;-77
2023/04/12 11:22:27;;;;;;;3.47;1.60;;;15.50;69.00;;;;;;5054960;28;20817;-77
2023/04/12 11:24:59;;;;;;;3.87;2.23;;;15.50;68.70;;;;;;5054819;28;20463;-78
2023/04/12 11:27:36;;;;;;;2.23;1.90;;;15.60;68.40;;;;;;5054948;28;20467;-77
2023/04/12 11:30:05;;;;;;;2.13;1.70;;;15.60;68.10;;;;;;5054400;28;20459;-76
2023/04/12 11:32:40;;;;;;;5.67;2.37;;;15.70;68.10;;;;;;5053968;28;21039;-77
2023/04/12 11:35:08;;;;;;;4.40;1.90;;;15.60;67.50;;;;;;5053078;28;20466;-78
2023/04/12 11:37:38;;;;;;;3.23;1.70;;;15.70;67.80;;;;;;5055199;28;20503;-78
2023/04/12 11:40:09;;;;;;;2.43;1.50;;;15.80;67.60;;;;;;5054917;28;20479;-78
2023/04/12 11:42:38;;;;;;;5.07;2.17;;;15.90;66.70;;;;;;5054813;28;20471;-77
2023/04/12 11:45:07;;;;;;;3.63;2.47;;;15.90;66.50;;;;;;5053828;28;20470;-77
2023/04/12 11:47:34;;;;;;;4.53;2.07;;;15.90;66.90;;;;;;5054382;28;20467;-77
2023/04/12 11:50:01;;;;;;;4.20;1.60;;;15.90;66.30;;;;;;5053617;28;20478;-78
2023/04/12 11:52:30;;;;;;;5.63;1.83;;;15.90;66.80;;;;;;5054540;28;20471;-77
2023/04/12 11:55:04;;;;;;;2.83;1.40;;;16.00;66.90;;;;;;5053991;28;20464;-78
2023/04/12 11:57:31;;;;;;;4.60;1.93;;;15.90;65.40;;;;;;5053912;28;20467;-78
2023/04/12 12:00:05;;;;;;;4.40;2.00;;;15.90;64.90;;;;;;5053794;28;20482;-76
2023/04/12 12:02:35;;;;;;;5.13;1.83;;;15.90;66.20;;;;;;5054901;28;21020;-78
2023/04/12 12:05:13;;;;;;;5.27;1.40;;;15.90;64.00;;;;;;5053511;28;20832;-78
2023/04/12 12:07:44;;;;;;;2.03;1.57;;;15.90;64.70;;;;;;5058455;28;20467;-77
2023/04/12 12:10:12;;;;;;;3.10;1.43;;;15.90;64.10;;;;;;5053623;28;20472;-77
2023/04/12 12:12:39;;;;;;;2.70;1.83;;;15.90;63.80;;;;;;5053624;28;20467;-77
2023/04/12 12:15:09;;;;;;;3.70;2.20;;;15.90;64.20;;;;;;5053973;28;20867;-76
2023/04/12 12:17:41;;;;;;;4.20;2.20;;;15.90;64.00;;;;;;5054792;28;20941;-77
2023/04/12 12:20:20;;;;;;;2.13;1.20;;;15.90;63.20;;;;;;5046936;28;20486;-77
2023/04/12 12:22:47;;;;;;;2.20;2.00;;;15.90;62.60;;;;;;5055209;28;21020;-75
2023/04/12 12:25:18;;;;;;;2.80;1.50;;;15.80;62.70;;;;;;5053173;28;20467;-75
2023/04/12 12:27:49;;;;;;;1.70;1.43;;;15.80;62.70;;;;;;5055634;28;20471;-76
2023/04/12 12:30:20;;;;;;;2.67;1.40;;;15.70;62.60;;;;;;5053925;28;20467;-76
2023/04/12 12:32:51;;;;;;;1.70;1.20;;;15.70;63.20;;;;;;5056211;28;20471;-78
2023/04/12 12:35:19;;;;;;;3.00;1.60;;;15.80;63.00;;;;;;5056912;28;20480;-76
2023/04/12 12:37:57;;;;;;;4.33;1.97;;;15.80;62.90;;;;;;5056099;28;20486;-78
2023/04/12 12:40:32;;;;;;;5.97;1.87;;;15.90;63.10;;;;;;5055484;28;20542;-78
2023/04/12 12:43:02;;;;;;;4.27;1.67;;;15.90;62.80;;;;;;5054110;28;20469;-76
2023/04/12 12:45:32;;;;;;;3.53;1.77;;;16.00;62.80;;;;;;5065041;28;20515;-75
2023/04/12 12:48:01;;;;;;;2.80;1.60;;;16.00;62.70;;;;;;5060192;28;20479;-75
2023/04/12 12:50:29;;;;;;;3.40;1.90;;;16.10;63.40;;;;;;5069436;28;20459;-76
2023/04/12 12:52:56;;;;;;;2.63;1.63;;;16.10;62.40;;;;;;5059848;28;20513;-76
2023/04/12 12:55:24;;;;;;;2.03;1.37;;;16.20;62.40;;;;;;5076390;28;20558;-76
2023/04/12 12:57:55;;;;;;;2.57;1.60;;;16.20;62.40;;;;;;5060529;28;20479;-76
2023/04/12 13:00:24;;;;;;;2.73;1.63;;;16.20;62.40;;;;;;5050279;28;20529;-76
2023/04/12 13:02:52;;;;;;;3.17;1.50;;;16.20;61.30;;;;;;5053112;28;20455;-76
2023/04/12 13:05:21;;;;;;;2.27;1.90;;;16.20;61.30;;;;;;5054586;28;20575;-76
2023/04/12 13:07:48;;;;;;;5.00;1.60;;;16.10;61.60;;;;;;5052266;28;20473;-78
2023/04/12 13:10:15;;;;;;;1.90;1.70;;;16.10;61.60;;;;;;5052049;28;20525;-78
2023/04/12 13:12:42;;;;;;;6.40;1.87;;;16.20;62.00;;;;;;5052165;28;20467;-76
2023/04/12 13:15:12;;;;;;;3.63;1.67;;;16.10;60.80;;;;;;5051188;28;20536;-76
2023/04/12 13:17:40;;;;;;;5.00;2.30;;;16.20;62.00;;;;;;5050824;28;20459;-76
2023/04/12 13:20:08;;;;;;;3.77;1.90;;;16.20;61.90;;;;;;5058185;28;20562;-76
2023/04/12 13:22:35;;;;;;;3.13;2.33;;;16.30;61.50;;;;;;5057190;28;20471;-76
2023/04/12 13:25:03;;;;;;;3.60;1.80;;;16.30;61.10;;;;;;5051892;28;20541;-76
2023/04/12 13:27:30;;;;;;;2.40;1.57;;;16.30;61.90;;;;;;5050701;28;20478;-76
2023/04/12 13:30:04;;;;;;;4.20;1.73;;;16.40;61.50;;;;;;5047026;28;20479;-76
2023/04/12 13:32:33;;;;;;;3.27;1.77;;;16.50;61.00;;;;;;5041156;28;20465;-76
2023/04/12 13:35:00;;;;;;;3.37;1.40;;;16.50;60.80;;;;;;5052240;28;20462;-77
2023/04/12 13:37:27;;;;;;;2.97;1.70;;;16.50;61.20;;;;;;5068073;28;20475;-78
2023/04/12 13:39:54;;;;;;;6.63;1.60;;;16.50;61.20;;;;;;5065217;28;20466;-78
2023/04/12 13:42:23;;;;;;;4.87;1.80;;;16.40;60.10;;;;;;5062953;28;20825;-76
2023/04/12 13:44:50;;;;;;;2.57;1.57;;;16.40;60.60;;;;;;5061926;28;20464;-76
2023/04/12 13:47:18;;;;;;;3.07;1.90;;;16.40;60.80;;;;;;5056438;28;20475;-76
2023/04/12 13:49:46;;;;;;;2.87;1.40;;;16.50;60.90;;;;;;5051083;28;20460;-77
2023/04/12 13:52:13;;;;;;;4.10;1.47;;;16.50;60.90;;;;;;5051809;28;20570;-76
2023/04/12 13:54:42;;;;;;;3.03;1.77;;;16.50;61.10;;;;;;5051647;28;20470;-78